Estación de Galvarino

Ultimos registro cada 15 minutos 73
Estación Fecha / Hora Temperatura Humedad Lluvia Velocidad Dirección Radiación Presion
73 Galvarino 09-05-2026 18:00 11,6 60 0 2,5 352 1,9 997,3
72 Galvarino 09-05-2026 17:45 12 61,2 0 2,5 357 15,6 997,2
71 Galvarino 09-05-2026 17:30 12,8 58,3 0 2 352 45,6 997,3
70 Galvarino 09-05-2026 17:15 13,5 54 0 2 352 94,4 997,4
69 Galvarino 09-05-2026 17:00 13,7 55,1 0 3 347 140,6 997,4
68 Galvarino 09-05-2026 16:45 13,9 55,3 0 3 347 179,4 997,6
67 Galvarino 09-05-2026 16:30 14,1 54,5 0 3 343 219,4 997,6
66 Galvarino 09-05-2026 16:15 14,4 50,9 0 3 347 258,1 997,9
65 Galvarino 09-05-2026 16:00 14,6 50,4 0 3,5 345 294,4 997,9
64 Galvarino 09-05-2026 15:45 14,4 51,2 0 3 347 329,4 997,9
63 Galvarino 09-05-2026 15:30 14,7 50,9 0 3 340 364,4 998
62 Galvarino 09-05-2026 15:15 14,7 50,1 0 2,5 337 395,6 998,2
61 Galvarino 09-05-2026 15:00 14,6 50,9 0 3 340 424,4 998,1
60 Galvarino 09-05-2026 14:45 14,5 51,7 0 3,5 347 449,4 998,2
59 Galvarino 09-05-2026 14:30 14,2 52,8 0 4 347 475,6 998,3
58 Galvarino 09-05-2026 14:15 14,3 55,6 0 3 350 495,6 998,4
57 Galvarino 09-05-2026 14:00 13,7 55,4 0 3,5 350 513,1 998,4
56 Galvarino 09-05-2026 13:45 13,4 57 0 3 347 526,9 998,6
55 Galvarino 09-05-2026 13:30 12,6 60,7 0 2,5 352 538,1 998,9
54 Galvarino 09-05-2026 13:15 12,2 62,1 0 2,5 351 548,1 999,3
53 Galvarino 09-05-2026 13:00 11,6 64,9 0 1,5 345 554,4 999,3
52 Galvarino 09-05-2026 12:45 11,2 68,8 0 1 337 559,4 999,6
51 Galvarino 09-05-2026 12:30 10,6 68,9 0 2 345 556,9 999,9
50 Galvarino 09-05-2026 12:15 10,2 70,4 0 2,5 354 556,9 1000
49 Galvarino 09-05-2026 12:00 9,6 70,3 0 2 358 246,9 1000,2
48 Galvarino 09-05-2026 11:45 8,8 71,7 0 2 352 39,4 1000,4
47 Galvarino 09-05-2026 11:30 8,3 73,1 0 2 352 290,6 1000,6
46 Galvarino 09-05-2026 11:15 8,2 71,4 0 2 357 503,1 1000,6
45 Galvarino 09-05-2026 11:00 7,9 73,6 0 2 347 33,1 1000,9
44 Galvarino 09-05-2026 10:45 7,5 73,7 0 2,5 350 31,9 1000,8
43 Galvarino 09-05-2026 10:30 7 74,9 0 2,5 347 31,9 1001
42 Galvarino 09-05-2026 10:15 7,1 76,8 0 1 3 31,9 1001
41 Galvarino 09-05-2026 10:00 6,6 77,2 0 1,5 352 31,9 1001
40 Galvarino 09-05-2026 09:45 6,1 76,8 0 1,5 352 30,6 1001
39 Galvarino 09-05-2026 09:30 5,7 77,5 0 1 355 98,1 1001
38 Galvarino 09-05-2026 09:15 5,3 78,2 0 1 354 46,9 1001,1
37 Galvarino 09-05-2026 09:00 4,9 80,9 0 0,5 358 24,4 1000,9
36 Galvarino 09-05-2026 08:45 4,6 80,8 0 0,5 358 21,9 1000,9
35 Galvarino 09-05-2026 08:30 3,9 82,9 0 0 352 19,4 1000,8
34 Galvarino 09-05-2026 08:15 3,6 84,1 0 0 358 14,4 1000,6
33 Galvarino 09-05-2026 08:00 3,5 84,4 0 0 352 10,6 1000,6
32 Galvarino 09-05-2026 07:45 3,4 85,1 0 0 357 4,4 1000,6
31 Galvarino 09-05-2026 07:30 3,2 85,8 0 0 0 0,6 1000,6
30 Galvarino 09-05-2026 07:15 2,9 87,1 0 0 343 0,6 1000,5
29 Galvarino 09-05-2026 07:00 2,3 86,8 0 0 334 0,6 1000,5
28 Galvarino 09-05-2026 06:45 3,9 84,1 0 0 351 0,6 1000,7
27 Galvarino 09-05-2026 06:30 3,6 86 0 0 354 0,6 1000,7
26 Galvarino 09-05-2026 06:15 3,5 86,4 0 0 358 0,6 1000,6
25 Galvarino 09-05-2026 06:00 3,8 85,8 0 0 354 0,6 1000,5
24 Galvarino 09-05-2026 05:45 4,1 85,1 0 0 348 0,6 1000,6
23 Galvarino 09-05-2026 05:30 4,1 85,7 0 0 0 0,6 1000,6
22 Galvarino 09-05-2026 05:15 4 86,8 0 0 357 0,6 1000,6
21 Galvarino 09-05-2026 05:00 4 86,7 0 0 350 0,6 1000,6
20 Galvarino 09-05-2026 04:45 4,2 86,6 0 0 352 0,6 1000,8
19 Galvarino 09-05-2026 04:30 4,1 87,4 0 0 1 0,6 1000,9
18 Galvarino 09-05-2026 04:15 4,1 87,2 0 0 347 0,6 1000,9
17 Galvarino 09-05-2026 04:00 4 87,1 0 0 4 0,6 1001
16 Galvarino 09-05-2026 03:45 4,1 86,1 0 0 4 0,6 1001
15 Galvarino 09-05-2026 03:30 4,2 85,4 0 0 1 0,6 1000,9
14 Galvarino 09-05-2026 03:15 4,1 85,9 0 0 13 0,6 1001,1
13 Galvarino 09-05-2026 03:00 4,4 84,3 0 0 358 0,6 1001,2
12 Galvarino 09-05-2026 02:45 4,6 83,7 0 0 7 0,6 1001,4
11 Galvarino 09-05-2026 02:30 4,7 83,9 0 0 6 0,6 1001,5
10 Galvarino 09-05-2026 02:15 4,5 85,9 0 0 4 0,6 1001,5
9 Galvarino 09-05-2026 02:00 4,7 85,7 0 0 8 0,6 1001,4
8 Galvarino 09-05-2026 01:45 4,9 85,3 0 0 348 0,6 1001,6
7 Galvarino 09-05-2026 01:30 5,4 84,6 0 0,5 350 0,6 1001,7
6 Galvarino 09-05-2026 01:15 4,9 88,4 0 0 0 0,6 1001,9
5 Galvarino 09-05-2026 01:00 5,2 88,1 0 0 358 0,6 1001,7
4 Galvarino 09-05-2026 00:45 5,1 89 0 0 358 0,6 1001,7
3 Galvarino 09-05-2026 00:30 5,4 88,3 0 0 333 0,6 1001,6
2 Galvarino 09-05-2026 00:15 5,5 89,9 0 0 348 0,6 1001,6
1 Galvarino 09-05-2026 00:00 5,4 91,2 0 0 1 0,6 1001,5